Karl Stefan Memorial Airport
KOFK : now visible

Airfield :











YOU CAN JOIN US ON...

 
LOGIN :

Register | Disclaimer

   EN    FR    IT 

 









Legend :    VFR   Marginal VFR   IFR   Intensive IFR   Very Intensive IFR
Visi :
Ceiling :
>= 8 km
>= 3000ft
5 to 8 km
1000 to 3000 ft
1500m to 5 km
500 to 1000 ft
800 to 1500m
200 to 500 ft
< 800m
< 200 ft
Symbols :   Thunderstorms  Fog  Heavy snow  Heavy precipitations  Wind > 20 kt






- Airport Elevation : 1573 ft


KOFK - Karl Stefan Memorial

CURRENT METAR :
  • 140056Z AUTO 34017KT 10SM CLR 00/M03 A2988 RMK AO2 SLP136 T00001033

EXPIRED METARs :
  • 132356Z AUTO 32010KT 10SM CLR 02/M03 A2986 RMK AO2 SLP129 T00171028 10056 21011 53026
  • 132256Z AUTO 33007KT 10SM CLR 02/M02 A2983 RMK AO2 SLP117 T00221017

TAF KOFK
Valid from the 14 at 00:00 until the 15 at 00:00 UTC


132323Z 1400/1424 32005KT P6SM SCT200
FM140300 33013G19KT P6SM OVC018
FM140400 33014G20KT P6SM OVC009
FM140700 33014G22KT P6SM OVC035
FM141500 35010KT P6SM SCT090



MET'MAP, your aeronautical weather chart ! - Copyright ORBIFLY December 2007 - Disclaimer

ORBIFLY MET'MAP TEAM :

Programming & Development : Alexandra Zaïnal
Concept & original design : Baudouin d'Aumeries
Assistance for programming : Marc-Olivier Méhu
Technical & hardware support : Manuel Goepfert

Contact : metmap@orbifly.com




SOURCES & CREDITS :

   NOAA       Earth
Advisory